sensor_id;sensor_type;location;lat;lon;timestamp;P1;durP1;ratioP1;P2;durP2;ratioP2
73850;SDS011;62190;51.548;5.688;2024-02-26T00:00:06;1.72;;;1.00;;
73850;SDS011;62190;51.548;5.688;2024-02-26T00:02:33;1.52;;;0.82;;
73850;SDS011;62190;51.548;5.688;2024-02-26T00:18:53;1.85;;;1.00;;
73850;SDS011;62190;51.548;5.688;2024-02-26T00:22:33;3.92;;;1.17;;
73850;SDS011;62190;51.548;5.688;2024-02-26T00:24:15;2.25;;;0.98;;
73850;SDS011;62190;51.548;5.688;2024-02-26T00:29:26;1.87;;;0.68;;
73850;SDS011;62190;51.548;5.688;2024-02-26T00:31:56;2.83;;;0.80;;
73850;SDS011;62190;51.548;5.688;2024-02-26T00:34:23;3.45;;;1.50;;
73850;SDS011;62190;51.548;5.688;2024-02-26T00:42:38;2.72;;;1.10;;
73850;SDS011;62190;51.548;5.688;2024-02-26T00:45:09;3.25;;;1.20;;
73850;SDS011;62190;51.548;5.688;2024-02-26T00:52:58;1.90;;;1.00;;
73850;SDS011;62190;51.548;5.688;2024-02-26T01:04:08;2.92;;;1.40;;
73850;SDS011;62190;51.548;5.688;2024-02-26T01:12:16;3.67;;;1.30;;
73850;SDS011;62190;51.548;5.688;2024-02-26T01:14:51;4.67;;;0.98;;
73850;SDS011;62190;51.548;5.688;2024-02-26T01:17:35;3.62;;;1.40;;
73850;SDS011;62190;51.548;5.688;2024-02-26T01:33:55;2.62;;;1.22;;
73850;SDS011;62190;51.548;5.688;2024-02-26T01:36:41;3.62;;;1.40;;
73850;SDS011;62190;51.548;5.688;2024-02-26T01:39:38;4.03;;;1.72;;
73850;SDS011;62190;51.548;5.688;2024-02-26T01:44:58;2.05;;;1.05;;
73850;SDS011;62190;51.548;5.688;2024-02-26T01:47:26;1.80;;;0.82;;
73850;SDS011;62190;51.548;5.688;2024-02-26T01:49:55;1.87;;;0.95;;
73850;SDS011;62190;51.548;5.688;2024-02-26T01:58:13;4.03;;;1.05;;
73850;SDS011;62190;51.548;5.688;2024-02-26T02:03:20;5.30;;;1.52;;
73850;SDS011;62190;51.548;5.688;2024-02-26T02:06:29;2.40;;;1.20;;
73850;SDS011;62190;51.548;5.688;2024-02-26T02:11:32;2.05;;;0.98;;
73850;SDS011;62190;51.548;5.688;2024-02-26T02:14:12;2.92;;;1.45;;
73850;SDS011;62190;51.548;5.688;2024-02-26T02:16:47;1.85;;;1.17;;
73850;SDS011;62190;51.548;5.688;2024-02-26T02:19:11;2.52;;;1.07;;
73850;SDS011;62190;51.548;5.688;2024-02-26T02:24:35;2.70;;;1.45;;
73850;SDS011;62190;51.548;5.688;2024-02-26T02:33:09;2.40;;;1.05;;
73850;SDS011;62190;51.548;5.688;2024-02-26T02:38:18;2.65;;;1.37;;
73850;SDS011;62190;51.548;5.688;2024-02-26T02:43:42;1.70;;;0.90;;
73850;SDS011;62190;51.548;5.688;2024-02-26T02:46:16;4.15;;;0.90;;
73850;SDS011;62190;51.548;5.688;2024-02-26T02:57:06;1.85;;;0.72;;
73850;SDS011;62190;51.548;5.688;2024-02-26T03:05:15;1.30;;;1.00;;
73850;SDS011;62190;51.548;5.688;2024-02-26T03:07:51;4.30;;;1.35;;
73850;SDS011;62190;51.548;5.688;2024-02-26T03:10:29;2.08;;;1.07;;
73850;SDS011;62190;51.548;5.688;2024-02-26T03:13:04;2.70;;;0.98;;
73850;SDS011;62190;51.548;5.688;2024-02-26T03:23:29;2.92;;;0.98;;
73850;SDS011;62190;51.548;5.688;2024-02-26T03:25:54;2.12;;;1.10;;
73850;SDS011;62190;51.548;5.688;2024-02-26T03:28:35;5.08;;;1.20;;
73850;SDS011;62190;51.548;5.688;2024-02-26T03:31:04;2.50;;;1.42;;
73850;SDS011;62190;51.548;5.688;2024-02-26T03:44:14;2.08;;;1.32;;
73850;SDS011;62190;51.548;5.688;2024-02-26T03:49:33;2.70;;;1.15;;
73850;SDS011;62190;51.548;5.688;2024-02-26T03:52:04;2.30;;;1.27;;
73850;SDS011;62190;51.548;5.688;2024-02-26T03:54:39;4.53;;;1.57;;
73850;SDS011;62190;51.548;5.688;2024-02-26T03:57:24;2.47;;;1.12;;
73850;SDS011;62190;51.548;5.688;2024-02-26T03:59:59;2.55;;;0.93;;
73850;SDS011;62190;51.548;5.688;2024-02-26T04:05:33;2.25;;;1.00;;
73850;SDS011;62190;51.548;5.688;2024-02-26T04:14:08;2.30;;;1.27;;
73850;SDS011;62190;51.548;5.688;2024-02-26T04:25:23;2.70;;;1.22;;
73850;SDS011;62190;51.548;5.688;2024-02-26T04:27:52;4.03;;;1.80;;
73850;SDS011;62190;51.548;5.688;2024-02-26T04:30:36;2.08;;;1.45;;
73850;SDS011;62190;51.548;5.688;2024-02-26T04:32:50;3.25;;;1.47;;
73850;SDS011;62190;51.548;5.688;2024-02-26T04:35:35;1.25;;;1.05;;
73850;SDS011;62190;51.548;5.688;2024-02-26T04:38:12;5.03;;;1.72;;
73850;SDS011;62190;51.548;5.688;2024-02-26T04:40:38;3.50;;;1.72;;
73850;SDS011;62190;51.548;5.688;2024-02-26T04:48:32;3.17;;;1.85;;
73850;SDS011;62190;51.548;5.688;2024-02-26T04:51:22;2.47;;;1.45;;
73850;SDS011;62190;51.548;5.688;2024-02-26T04:56:26;2.22;;;1.32;;
73850;SDS011;62190;51.548;5.688;2024-02-26T04:58:59;3.80;;;1.95;;
73850;SDS011;62190;51.548;5.688;2024-02-26T05:01:35;2.75;;;1.50;;
73850;SDS011;62190;51.548;5.688;2024-02-26T05:04:13;3.15;;;1.77;;
73850;SDS011;62190;51.548;5.688;2024-02-26T05:09:39;2.72;;;1.70;;
73850;SDS011;62190;51.548;5.688;2024-02-26T05:14:38;2.25;;;1.42;;
73850;SDS011;62190;51.548;5.688;2024-02-26T05:17:03;7.92;;;1.37;;
73850;SDS011;62190;51.548;5.688;2024-02-26T05:19:34;5.62;;;1.60;;
73850;SDS011;62190;51.548;5.688;2024-02-26T05:22:08;3.70;;;2.05;;
73850;SDS011;62190;51.548;5.688;2024-02-26T05:24:53;3.70;;;1.60;;
73850;SDS011;62190;51.548;5.688;2024-02-26T05:27:24;2.35;;;1.50;;
73850;SDS011;62190;51.548;5.688;2024-02-26T05:29:58;3.55;;;1.50;;
73850;SDS011;62190;51.548;5.688;2024-02-26T05:32:30;2.15;;;1.25;;
73850;SDS011;62190;51.548;5.688;2024-02-26T05:34:56;2.50;;;1.02;;
73850;SDS011;62190;51.548;5.688;2024-02-26T05:37:27;1.52;;;1.02;;
73850;SDS011;62190;51.548;5.688;2024-02-26T05:39:59;2.60;;;1.32;;
73850;SDS011;62190;51.548;5.688;2024-02-26T05:42:53;6.53;;;1.20;;
73850;SDS011;62190;51.548;5.688;2024-02-26T05:45:00;4.97;;;1.50;;
73850;SDS011;62190;51.548;5.688;2024-02-26T05:47:33;3.95;;;1.27;;
73850;SDS011;62190;51.548;5.688;2024-02-26T05:50:09;1.92;;;1.35;;
73850;SDS011;62190;51.548;5.688;2024-02-26T05:52:53;2.65;;;1.40;;
73850;SDS011;62190;51.548;5.688;2024-02-26T05:55:38;3.72;;;1.17;;
73850;SDS011;62190;51.548;5.688;2024-02-26T05:57:49;2.47;;;1.37;;
73850;SDS011;62190;51.548;5.688;2024-02-26T06:00:25;2.70;;;1.60;;
73850;SDS011;62190;51.548;5.688;2024-02-26T06:08:10;3.50;;;1.02;;
73850;SDS011;62190;51.548;5.688;2024-02-26T06:10:48;3.02;;;1.60;;
73850;SDS011;62190;51.548;5.688;2024-02-26T06:13:19;3.77;;;1.30;;
73850;SDS011;62190;51.548;5.688;2024-02-26T06:15:49;2.30;;;1.35;;
73850;SDS011;62190;51.548;5.688;2024-02-26T06:18:17;4.80;;;1.50;;
73850;SDS011;62190;51.548;5.688;2024-02-26T06:20:48;2.77;;;1.30;;
73850;SDS011;62190;51.548;5.688;2024-02-26T06:23:21;2.92;;;1.12;;
73850;SDS011;62190;51.548;5.688;2024-02-26T06:28:25;3.98;;;1.60;;
73850;SDS011;62190;51.548;5.688;2024-02-26T06:30:50;2.52;;;1.90;;
73850;SDS011;62190;51.548;5.688;2024-02-26T06:33:28;4.10;;;1.70;;
73850;SDS011;62190;51.548;5.688;2024-02-26T06:35:54;2.92;;;1.80;;
73850;SDS011;62190;51.548;5.688;2024-02-26T06:38:27;3.10;;;1.65;;
73850;SDS011;62190;51.548;5.688;2024-02-26T06:40:55;3.30;;;1.80;;
73850;SDS011;62190;51.548;5.688;2024-02-26T06:43:23;4.72;;;1.85;;
73850;SDS011;62190;51.548;5.688;2024-02-26T06:46:08;3.92;;;2.17;;
73850;SDS011;62190;51.548;5.688;2024-02-26T06:48:39;5.05;;;2.37;;
73850;SDS011;62190;51.548;5.688;2024-02-26T06:51:44;2.95;;;1.98;;
73850;SDS011;62190;51.548;5.688;2024-02-26T06:53:37;4.85;;;2.80;;
73850;SDS011;62190;51.548;5.688;2024-02-26T06:56:03;3.67;;;2.30;;
73850;SDS011;62190;51.548;5.688;2024-02-26T06:58:39;4.40;;;2.72;;
73850;SDS011;62190;51.548;5.688;2024-02-26T07:01:10;4.08;;;2.77;;
73850;SDS011;62190;51.548;5.688;2024-02-26T07:03:36;5.90;;;2.25;;
73850;SDS011;62190;51.548;5.688;2024-02-26T07:06:04;3.85;;;2.62;;
73850;SDS011;62190;51.548;5.688;2024-02-26T07:08:33;6.42;;;2.20;;
73850;SDS011;62190;51.548;5.688;2024-02-26T07:10:58;5.47;;;2.72;;
73850;SDS011;62190;51.548;5.688;2024-02-26T07:13:25;5.37;;;2.45;;
73850;SDS011;62190;51.548;5.688;2024-02-26T07:15:54;4.75;;;2.85;;
73850;SDS011;62190;51.548;5.688;2024-02-26T07:18:21;4.83;;;2.77;;
73850;SDS011;62190;51.548;5.688;2024-02-26T07:20:59;3.52;;;2.12;;
73850;SDS011;62190;51.548;5.688;2024-02-26T07:25:51;4.60;;;2.50;;
73850;SDS011;62190;51.548;5.688;2024-02-26T07:28:18;3.90;;;2.95;;
73850;SDS011;62190;51.548;5.688;2024-02-26T07:30:45;4.83;;;2.52;;
73850;SDS011;62190;51.548;5.688;2024-02-26T07:33:11;4.15;;;2.40;;
73850;SDS011;62190;51.548;5.688;2024-02-26T07:35:38;3.52;;;2.15;;
73850;SDS011;62190;51.548;5.688;2024-02-26T07:38:04;5.58;;;2.47;;
73850;SDS011;62190;51.548;5.688;2024-02-26T07:40:32;5.85;;;2.75;;
73850;SDS011;62190;51.548;5.688;2024-02-26T07:42:58;3.45;;;2.22;;
73850;SDS011;62190;51.548;5.688;2024-02-26T07:45:25;3.10;;;2.10;;
73850;SDS011;62190;51.548;5.688;2024-02-26T07:47:54;2.67;;;2.10;;
73850;SDS011;62190;51.548;5.688;2024-02-26T07:50:20;3.50;;;2.30;;
73850;SDS011;62190;51.548;5.688;2024-02-26T07:52:47;3.20;;;1.92;;
73850;SDS011;62190;51.548;5.688;2024-02-26T07:55:15;4.58;;;3.05;;
73850;SDS011;62190;51.548;5.688;2024-02-26T07:57:42;2.72;;;1.95;;
73850;SDS011;62190;51.548;5.688;2024-02-26T08:00:09;4.80;;;2.10;;
73850;SDS011;62190;51.548;5.688;2024-02-26T08:02:41;4.05;;;2.17;;
73850;SDS011;62190;51.548;5.688;2024-02-26T08:05:07;4.03;;;2.05;;
73850;SDS011;62190;51.548;5.688;2024-02-26T08:07:33;3.65;;;2.20;;
73850;SDS011;62190;51.548;5.688;2024-02-26T08:09:59;3.10;;;2.00;;
73850;SDS011;62190;51.548;5.688;2024-02-26T08:12:26;3.62;;;2.02;;
73850;SDS011;62190;51.548;5.688;2024-02-26T08:14:52;5.00;;;2.33;;
73850;SDS011;62190;51.548;5.688;2024-02-26T08:17:22;7.37;;;3.47;;
73850;SDS011;62190;51.548;5.688;2024-02-26T08:19:53;3.47;;;1.92;;
73850;SDS011;62190;51.548;5.688;2024-02-26T08:22:22;5.05;;;2.10;;
73850;SDS011;62190;51.548;5.688;2024-02-26T08:25:31;4.15;;;2.47;;
73850;SDS011;62190;51.548;5.688;2024-02-26T08:27:18;5.30;;;2.47;;
73850;SDS011;62190;51.548;5.688;2024-02-26T08:29:50;4.72;;;2.65;;
73850;SDS011;62190;51.548;5.688;2024-02-26T08:32:20;3.87;;;2.58;;
73850;SDS011;62190;51.548;5.688;2024-02-26T08:34:48;4.53;;;2.42;;
73850;SDS011;62190;51.548;5.688;2024-02-26T08:37:16;4.10;;;2.35;;
73850;SDS011;62190;51.548;5.688;2024-02-26T08:39:54;5.40;;;2.80;;
73850;SDS011;62190;51.548;5.688;2024-02-26T08:42:22;4.83;;;2.25;;
73850;SDS011;62190;51.548;5.688;2024-02-26T08:44:49;4.55;;;2.70;;
73850;SDS011;62190;51.548;5.688;2024-02-26T08:47:16;3.55;;;2.45;;
73850;SDS011;62190;51.548;5.688;2024-02-26T08:49:46;7.80;;;3.12;;
73850;SDS011;62190;51.548;5.688;2024-02-26T08:52:13;4.30;;;2.58;;
73850;SDS011;62190;51.548;5.688;2024-02-26T08:54:39;5.22;;;3.67;;
73850;SDS011;62190;51.548;5.688;2024-02-26T08:57:08;4.25;;;2.98;;
73850;SDS011;62190;51.548;5.688;2024-02-26T08:59:35;6.40;;;2.60;;
73850;SDS011;62190;51.548;5.688;2024-02-26T09:02:01;4.72;;;2.50;;
73850;SDS011;62190;51.548;5.688;2024-02-26T09:04:32;4.75;;;2.22;;
73850;SDS011;62190;51.548;5.688;2024-02-26T09:06:56;4.22;;;3.00;;
73850;SDS011;62190;51.548;5.688;2024-02-26T09:09:28;5.90;;;3.10;;
73850;SDS011;62190;51.548;5.688;2024-02-26T09:11:58;4.50;;;2.92;;
73850;SDS011;62190;51.548;5.688;2024-02-26T09:14:26;3.90;;;2.70;;
73850;SDS011;62190;51.548;5.688;2024-02-26T09:16:52;7.33;;;3.17;;
73850;SDS011;62190;51.548;5.688;2024-02-26T09:19:22;4.22;;;2.70;;
73850;SDS011;62190;51.548;5.688;2024-02-26T09:21:52;6.10;;;3.02;;
73850;SDS011;62190;51.548;5.688;2024-02-26T09:24:28;6.08;;;3.15;;
73850;SDS011;62190;51.548;5.688;2024-02-26T09:27:12;4.30;;;2.70;;
73850;SDS011;62190;51.548;5.688;2024-02-26T09:29:35;5.28;;;2.52;;
73850;SDS011;62190;51.548;5.688;2024-02-26T09:32:06;4.42;;;2.50;;
73850;SDS011;62190;51.548;5.688;2024-02-26T09:34:34;4.70;;;2.50;;
73850;SDS011;62190;51.548;5.688;2024-02-26T09:37:03;5.65;;;3.22;;
73850;SDS011;62190;51.548;5.688;2024-02-26T09:39:31;5.30;;;2.58;;
73850;SDS011;62190;51.548;5.688;2024-02-26T09:42:04;4.65;;;3.00;;
73850;SDS011;62190;51.548;5.688;2024-02-26T09:44:32;4.20;;;2.08;;
73850;SDS011;62190;51.548;5.688;2024-02-26T09:47:01;4.15;;;2.42;;
73850;SDS011;62190;51.548;5.688;2024-02-26T09:49:46;8.60;;;3.20;;
73850;SDS011;62190;51.548;5.688;2024-02-26T09:52:05;6.12;;;3.00;;
73850;SDS011;62190;51.548;5.688;2024-02-26T09:54:32;5.22;;;2.35;;
73850;SDS011;62190;51.548;5.688;2024-02-26T09:56:59;4.20;;;2.35;;
73850;SDS011;62190;51.548;5.688;2024-02-26T09:59:37;6.05;;;2.58;;
73850;SDS011;62190;51.548;5.688;2024-02-26T10:02:03;7.40;;;2.45;;
73850;SDS011;62190;51.548;5.688;2024-02-26T10:04:32;4.62;;;2.70;;
73850;SDS011;62190;51.548;5.688;2024-02-26T10:06:59;5.12;;;2.58;;
73850;SDS011;62190;51.548;5.688;2024-02-26T10:09:27;4.70;;;2.77;;
73850;SDS011;62190;51.548;5.688;2024-02-26T10:11:54;5.10;;;3.30;;
73850;SDS011;62190;51.548;5.688;2024-02-26T10:14:21;5.83;;;3.25;;
73850;SDS011;62190;51.548;5.688;2024-02-26T10:16:49;7.33;;;3.92;;
73850;SDS011;62190;51.548;5.688;2024-02-26T10:19:25;7.75;;;3.58;;
73850;SDS011;62190;51.548;5.688;2024-02-26T10:21:58;5.05;;;3.10;;
73850;SDS011;62190;51.548;5.688;2024-02-26T10:24:26;5.92;;;3.50;;
73850;SDS011;62190;51.548;5.688;2024-02-26T10:26:53;5.47;;;3.10;;
73850;SDS011;62190;51.548;5.688;2024-02-26T10:29:20;4.40;;;2.75;;
73850;SDS011;62190;51.548;5.688;2024-02-26T10:31:47;7.12;;;4.65;;
73850;SDS011;62190;51.548;5.688;2024-02-26T10:34:17;8.13;;;4.17;;
73850;SDS011;62190;51.548;5.688;2024-02-26T10:36:43;6.53;;;3.83;;
73850;SDS011;62190;51.548;5.688;2024-02-26T10:39:13;6.58;;;3.65;;
73850;SDS011;62190;51.548;5.688;2024-02-26T10:41:43;9.63;;;4.75;;
73850;SDS011;62190;51.548;5.688;2024-02-26T10:44:10;7.70;;;3.98;;
73850;SDS011;62190;51.548;5.688;2024-02-26T10:46:50;11.55;;;5.58;;
73850;SDS011;62190;51.548;5.688;2024-02-26T10:49:17;8.55;;;5.08;;
73850;SDS011;62190;51.548;5.688;2024-02-26T10:51:45;12.03;;;5.58;;
73850;SDS011;62190;51.548;5.688;2024-02-26T10:54:17;11.65;;;6.08;;
73850;SDS011;62190;51.548;5.688;2024-02-26T10:56:43;11.73;;;6.25;;
73850;SDS011;62190;51.548;5.688;2024-02-26T10:59:11;11.12;;;5.97;;
73850;SDS011;62190;51.548;5.688;2024-02-26T11:01:40;10.48;;;5.87;;
73850;SDS011;62190;51.548;5.688;2024-02-26T11:04:06;6.15;;;4.50;;
73850;SDS011;62190;51.548;5.688;2024-02-26T11:06:39;9.28;;;5.45;;
73850;SDS011;62190;51.548;5.688;2024-02-26T11:09:11;12.33;;;5.80;;
73850;SDS011;62190;51.548;5.688;2024-02-26T11:11:40;11.65;;;5.90;;
73850;SDS011;62190;51.548;5.688;2024-02-26T11:14:08;10.30;;;6.58;;
73850;SDS011;62190;51.548;5.688;2024-02-26T11:16:39;11.97;;;6.50;;
73850;SDS011;62190;51.548;5.688;2024-02-26T11:19:04;13.95;;;6.05;;
73850;SDS011;62190;51.548;5.688;2024-02-26T11:21:33;10.00;;;5.78;;
73850;SDS011;62190;51.548;5.688;2024-02-26T11:24:13;11.90;;;5.75;;
73850;SDS011;62190;51.548;5.688;2024-02-26T11:26:51;10.98;;;6.20;;
73850;SDS011;62190;51.548;5.688;2024-02-26T11:29:15;13.15;;;6.45;;
73850;SDS011;62190;51.548;5.688;2024-02-26T11:31:45;9.68;;;5.67;;
73850;SDS011;62190;51.548;5.688;2024-02-26T11:34:12;13.93;;;6.97;;
73850;SDS011;62190;51.548;5.688;2024-02-26T11:36:39;13.45;;;7.70;;
73850;SDS011;62190;51.548;5.688;2024-02-26T11:39:07;12.55;;;5.95;;
73850;SDS011;62190;51.548;5.688;2024-02-26T11:41:34;11.18;;;5.80;;
73850;SDS011;62190;51.548;5.688;2024-02-26T11:44:02;15.95;;;6.37;;
73850;SDS011;62190;51.548;5.688;2024-02-26T11:46:30;11.22;;;5.03;;
73850;SDS011;62190;51.548;5.688;2024-02-26T11:49:01;13.70;;;5.55;;
73850;SDS011;62190;51.548;5.688;2024-02-26T11:51:28;16.20;;;6.45;;
73850;SDS011;62190;51.548;5.688;2024-02-26T11:53:57;13.72;;;6.35;;
73850;SDS011;62190;51.548;5.688;2024-02-26T11:56:27;11.63;;;5.58;;
73850;SDS011;62190;51.548;5.688;2024-02-26T11:59:03;13.20;;;6.22;;
73850;SDS011;62190;51.548;5.688;2024-02-26T12:04:11;11.38;;;6.30;;
73850;SDS011;62190;51.548;5.688;2024-02-26T12:09:12;14.43;;;7.30;;
73850;SDS011;62190;51.548;5.688;2024-02-26T12:11:44;17.85;;;7.58;;
73850;SDS011;62190;51.548;5.688;2024-02-26T12:14:17;15.63;;;6.25;;
73850;SDS011;62190;51.548;5.688;2024-02-26T12:16:40;17.70;;;7.08;;
73850;SDS011;62190;51.548;5.688;2024-02-26T12:19:09;21.17;;;8.93;;
73850;SDS011;62190;51.548;5.688;2024-02-26T12:21:35;21.27;;;7.90;;
73850;SDS011;62190;51.548;5.688;2024-02-26T12:24:12;16.65;;;7.70;;
73850;SDS011;62190;51.548;5.688;2024-02-26T12:26:43;15.50;;;8.33;;
73850;SDS011;62190;51.548;5.688;2024-02-26T12:29:07;16.87;;;8.43;;
73850;SDS011;62190;51.548;5.688;2024-02-26T12:31:36;21.05;;;9.35;;
73850;SDS011;62190;51.548;5.688;2024-02-26T12:34:03;20.23;;;8.75;;
73850;SDS011;62190;51.548;5.688;2024-02-26T12:36:31;21.48;;;8.68;;
73850;SDS011;62190;51.548;5.688;2024-02-26T12:38:59;18.75;;;8.78;;
73850;SDS011;62190;51.548;5.688;2024-02-26T12:41:27;21.50;;;8.95;;
73850;SDS011;62190;51.548;5.688;2024-02-26T12:43:56;20.68;;;9.08;;
73850;SDS011;62190;51.548;5.688;2024-02-26T12:46:24;19.12;;;9.35;;
73850;SDS011;62190;51.548;5.688;2024-02-26T12:48:51;19.12;;;8.30;;
73850;SDS011;62190;51.548;5.688;2024-02-26T12:51:27;17.32;;;8.38;;
73850;SDS011;62190;51.548;5.688;2024-02-26T12:53:55;20.30;;;9.20;;
73850;SDS011;62190;51.548;5.688;2024-02-26T12:56:22;19.77;;;8.58;;
73850;SDS011;62190;51.548;5.688;2024-02-26T12:58:56;19.17;;;9.10;;
73850;SDS011;62190;51.548;5.688;2024-02-26T13:01:22;17.15;;;8.68;;
73850;SDS011;62190;51.548;5.688;2024-02-26T13:03:50;15.50;;;7.97;;
73850;SDS011;62190;51.548;5.688;2024-02-26T13:06:17;19.77;;;9.00;;
73850;SDS011;62190;51.548;5.688;2024-02-26T13:08:47;14.28;;;7.30;;
73850;SDS011;62190;51.548;5.688;2024-02-26T13:11:30;19.73;;;8.55;;
73850;SDS011;62190;51.548;5.688;2024-02-26T13:13:47;16.95;;;8.35;;
73850;SDS011;62190;51.548;5.688;2024-02-26T13:16:13;20.60;;;8.00;;
73850;SDS011;62190;51.548;5.688;2024-02-26T13:18:40;18.75;;;8.05;;
73850;SDS011;62190;51.548;5.688;2024-02-26T13:21:12;18.02;;;7.28;;
73850;SDS011;62190;51.548;5.688;2024-02-26T13:23:38;15.23;;;7.78;;
73850;SDS011;62190;51.548;5.688;2024-02-26T13:29:08;15.72;;;6.28;;
73850;SDS011;62190;51.548;5.688;2024-02-26T13:31:46;14.60;;;7.47;;
73850;SDS011;62190;51.548;5.688;2024-02-26T13:34:10;14.68;;;7.50;;
73850;SDS011;62190;51.548;5.688;2024-02-26T13:36:38;13.93;;;6.47;;
73850;SDS011;62190;51.548;5.688;2024-02-26T13:39:04;11.43;;;5.78;;
73850;SDS011;62190;51.548;5.688;2024-02-26T13:41:30;11.97;;;6.72;;
73850;SDS011;62190;51.548;5.688;2024-02-26T13:44:06;12.80;;;5.78;;
73850;SDS011;62190;51.548;5.688;2024-02-26T13:46:32;10.08;;;5.37;;
73850;SDS011;62190;51.548;5.688;2024-02-26T13:49:04;12.25;;;5.47;;
73850;SDS011;62190;51.548;5.688;2024-02-26T13:51:28;13.20;;;5.47;;
73850;SDS011;62190;51.548;5.688;2024-02-26T13:53:58;11.18;;;5.30;;
73850;SDS011;62190;51.548;5.688;2024-02-26T13:56:24;11.95;;;4.83;;
73850;SDS011;62190;51.548;5.688;2024-02-26T13:58:52;11.68;;;5.37;;
73850;SDS011;62190;51.548;5.688;2024-02-26T14:01:19;10.85;;;4.87;;
73850;SDS011;62190;51.548;5.688;2024-02-26T14:03:45;10.40;;;5.42;;
73850;SDS011;62190;51.548;5.688;2024-02-26T14:06:12;12.88;;;5.72;;
73850;SDS011;62190;51.548;5.688;2024-02-26T14:08:38;13.65;;;5.20;;
73850;SDS011;62190;51.548;5.688;2024-02-26T14:11:07;10.60;;;4.70;;
73850;SDS011;62190;51.548;5.688;2024-02-26T14:13:36;10.10;;;4.45;;
73850;SDS011;62190;51.548;5.688;2024-02-26T14:16:02;10.58;;;5.47;;
73850;SDS011;62190;51.548;5.688;2024-02-26T14:18:31;10.93;;;5.25;;
73850;SDS011;62190;51.548;5.688;2024-02-26T14:20:58;10.95;;;5.28;;
73850;SDS011;62190;51.548;5.688;2024-02-26T14:23:26;8.93;;;4.78;;
73850;SDS011;62190;51.548;5.688;2024-02-26T14:25:53;7.85;;;4.42;;
73850;SDS011;62190;51.548;5.688;2024-02-26T14:28:19;10.18;;;4.55;;
73850;SDS011;62190;51.548;5.688;2024-02-26T14:30:49;7.10;;;4.67;;
73850;SDS011;62190;51.548;5.688;2024-02-26T14:33:15;14.43;;;5.85;;
73850;SDS011;62190;51.548;5.688;2024-02-26T14:35:43;14.33;;;5.17;;
73850;SDS011;62190;51.548;5.688;2024-02-26T14:38:12;11.40;;;4.50;;
73850;SDS011;62190;51.548;5.688;2024-02-26T14:40:38;9.20;;;5.05;;
73850;SDS011;62190;51.548;5.688;2024-02-26T14:43:07;11.60;;;5.50;;
73850;SDS011;62190;51.548;5.688;2024-02-26T14:45:35;10.93;;;4.72;;
73850;SDS011;62190;51.548;5.688;2024-02-26T14:48:02;10.48;;;4.70;;
73850;SDS011;62190;51.548;5.688;2024-02-26T14:50:29;12.35;;;4.65;;
73850;SDS011;62190;51.548;5.688;2024-02-26T14:52:59;12.43;;;5.47;;
73850;SDS011;62190;51.548;5.688;2024-02-26T14:55:32;11.12;;;5.22;;
73850;SDS011;62190;51.548;5.688;2024-02-26T14:57:55;9.48;;;5.22;;
73850;SDS011;62190;51.548;5.688;2024-02-26T15:00:25;10.43;;;5.67;;
73850;SDS011;62190;51.548;5.688;2024-02-26T15:02:51;8.63;;;4.67;;
73850;SDS011;62190;51.548;5.688;2024-02-26T15:05:20;9.90;;;4.62;;
73850;SDS011;62190;51.548;5.688;2024-02-26T15:07:48;11.48;;;6.35;;
73850;SDS011;62190;51.548;5.688;2024-02-26T15:10:19;10.03;;;5.05;;
73850;SDS011;62190;51.548;5.688;2024-02-26T15:12:46;13.08;;;5.53;;
73850;SDS011;62190;51.548;5.688;2024-02-26T15:15:14;12.23;;;4.90;;
73850;SDS011;62190;51.548;5.688;2024-02-26T15:17:42;9.08;;;4.35;;
73850;SDS011;62190;51.548;5.688;2024-02-26T15:20:09;9.68;;;4.33;;
73850;SDS011;62190;51.548;5.688;2024-02-26T15:22:37;10.75;;;5.58;;
73850;SDS011;62190;51.548;5.688;2024-02-26T15:25:03;13.25;;;5.97;;
73850;SDS011;62190;51.548;5.688;2024-02-26T15:27:31;12.68;;;5.22;;
73850;SDS011;62190;51.548;5.688;2024-02-26T15:29:57;8.20;;;4.62;;
73850;SDS011;62190;51.548;5.688;2024-02-26T15:32:31;9.45;;;5.28;;
73850;SDS011;62190;51.548;5.688;2024-02-26T15:35:02;8.73;;;5.10;;
73850;SDS011;62190;51.548;5.688;2024-02-26T15:37:26;8.55;;;4.22;;
73850;SDS011;62190;51.548;5.688;2024-02-26T15:39:53;7.80;;;4.47;;
73850;SDS011;62190;51.548;5.688;2024-02-26T15:42:19;11.97;;;5.45;;
73850;SDS011;62190;51.548;5.688;2024-02-26T15:44:45;13.68;;;5.75;;
73850;SDS011;62190;51.548;5.688;2024-02-26T15:47:12;9.08;;;4.83;;
73850;SDS011;62190;51.548;5.688;2024-02-26T15:49:45;10.68;;;5.40;;
73850;SDS011;62190;51.548;5.688;2024-02-26T15:52:08;11.22;;;5.47;;
73850;SDS011;62190;51.548;5.688;2024-02-26T15:54:38;10.50;;;5.28;;
73850;SDS011;62190;51.548;5.688;2024-02-26T15:57:06;12.75;;;5.45;;
73850;SDS011;62190;51.548;5.688;2024-02-26T15:59:36;12.98;;;6.00;;
73850;SDS011;62190;51.548;5.688;2024-02-26T16:02:03;9.30;;;5.55;;
73850;SDS011;62190;51.548;5.688;2024-02-26T16:04:34;10.93;;;5.08;;
73850;SDS011;62190;51.548;5.688;2024-02-26T16:07:04;12.33;;;5.40;;
73850;SDS011;62190;51.548;5.688;2024-02-26T16:09:35;11.90;;;4.77;;
73850;SDS011;62190;51.548;5.688;2024-02-26T16:12:11;10.68;;;5.22;;
73850;SDS011;62190;51.548;5.688;2024-02-26T16:19:44;12.47;;;4.83;;
73850;SDS011;62190;51.548;5.688;2024-02-26T16:22:11;11.12;;;5.37;;
73850;SDS011;62190;51.548;5.688;2024-02-26T16:24:38;12.58;;;6.00;;
73850;SDS011;62190;51.548;5.688;2024-02-26T16:27:07;13.83;;;5.10;;
73850;SDS011;62190;51.548;5.688;2024-02-26T16:29:34;9.85;;;5.53;;
73850;SDS011;62190;51.548;5.688;2024-02-26T16:32:01;12.07;;;5.25;;
73850;SDS011;62190;51.548;5.688;2024-02-26T16:34:28;9.28;;;4.45;;
73850;SDS011;62190;51.548;5.688;2024-02-26T16:36:54;12.68;;;5.92;;
73850;SDS011;62190;51.548;5.688;2024-02-26T16:39:21;12.40;;;5.65;;
73850;SDS011;62190;51.548;5.688;2024-02-26T16:41:47;8.55;;;4.70;;
73850;SDS011;62190;51.548;5.688;2024-02-26T16:44:13;11.20;;;5.20;;
73850;SDS011;62190;51.548;5.688;2024-02-26T16:46:40;13.55;;;6.10;;
73850;SDS011;62190;51.548;5.688;2024-02-26T16:49:06;9.83;;;4.53;;
73850;SDS011;62190;51.548;5.688;2024-02-26T16:51:43;11.88;;;5.40;;
73850;SDS011;62190;51.548;5.688;2024-02-26T16:54:13;10.55;;;5.30;;
73850;SDS011;62190;51.548;5.688;2024-02-26T16:56:38;11.03;;;5.22;;
73850;SDS011;62190;51.548;5.688;2024-02-26T16:59:05;9.80;;;5.65;;
73850;SDS011;62190;51.548;5.688;2024-02-26T17:01:32;8.45;;;4.87;;
73850;SDS011;62190;51.548;5.688;2024-02-26T17:04:03;11.22;;;5.12;;
73850;SDS011;62190;51.548;5.688;2024-02-26T17:06:28;12.37;;;5.33;;
73850;SDS011;62190;51.548;5.688;2024-02-26T17:08:54;9.03;;;4.72;;
73850;SDS011;62190;51.548;5.688;2024-02-26T17:11:21;11.70;;;4.97;;
73850;SDS011;62190;51.548;5.688;2024-02-26T17:13:49;12.53;;;5.03;;
73850;SDS011;62190;51.548;5.688;2024-02-26T17:16:15;11.85;;;5.42;;
73850;SDS011;62190;51.548;5.688;2024-02-26T17:18:44;11.25;;;4.40;;
73850;SDS011;62190;51.548;5.688;2024-02-26T17:21:10;7.83;;;4.72;;
73850;SDS011;62190;51.548;5.688;2024-02-26T17:23:36;11.33;;;5.03;;
73850;SDS011;62190;51.548;5.688;2024-02-26T17:26:03;10.60;;;4.87;;
73850;SDS011;62190;51.548;5.688;2024-02-26T17:28:36;10.18;;;5.08;;
73850;SDS011;62190;51.548;5.688;2024-02-26T17:31:01;11.08;;;5.22;;
73850;SDS011;62190;51.548;5.688;2024-02-26T17:33:27;12.95;;;4.60;;
73850;SDS011;62190;51.548;5.688;2024-02-26T17:35:54;9.33;;;4.60;;
73850;SDS011;62190;51.548;5.688;2024-02-26T17:38:20;7.97;;;3.92;;
73850;SDS011;62190;51.548;5.688;2024-02-26T17:40:47;9.35;;;4.75;;
73850;SDS011;62190;51.548;5.688;2024-02-26T17:43:17;10.90;;;4.95;;
73850;SDS011;62190;51.548;5.688;2024-02-26T17:45:49;8.45;;;4.75;;
73850;SDS011;62190;51.548;5.688;2024-02-26T17:48:19;15.10;;;4.65;;
73850;SDS011;62190;51.548;5.688;2024-02-26T17:50:44;10.45;;;5.15;;